Time;durP1;ratioP1;P1;durP2;ratioP2;P2;SDS_P1;SDS_P2;PMS_P1;PMS_P2;Temp;Humidity;BMP_temperature;BMP_pressure;BME280_temperature;BME280_humidity;BME280_pressure;Samples;Min_cycle;Max_cycle;Signal;HPM_P1;HPM_P2
2024/01/18 00:03:22;;;;;;;49.90;27.80;;;;;;;1.41;90.72;95748.40;435207;1253;107556;-39
2024/01/18 00:13:30;;;;;;;78.20;36.60;;;;;;;1.49;91.09;95731.53;435186;1253;97987;-39
2024/01/18 00:23:36;;;;;;;76.70;34.80;;;;;;;1.46;91.17;95733.73;435222;1253;111838;-39
2024/01/18 00:33:42;;;;;;;53.20;28.90;;;;;;;1.54;91.27;95738.52;435094;1253;99330;-38
2024/01/18 00:43:57;;;;;;;39.90;22.30;;;;;;;1.66;91.34;95749.99;422839;1294;636047;-39
2024/01/18 00:54:04;;;;;;;30.80;15.70;;;;;;;1.91;91.94;95740.98;433105;1258;439245;-39
2024/01/18 01:04:12;;;;;;;30.00;18.10;;;;;;;2.17;92.12;95747.25;434061;1264;107121;-39
2024/01/18 01:14:20;;;;;;;32.00;20.30;;;;;;;2.36;92.49;95749.25;433923;1263;108501;-40
2024/01/18 01:24:27;;;;;;;26.10;13.80;;;;;;;2.56;92.65;95761.82;434117;1263;107548;-39
2024/01/18 01:34:35;;;;;;;15.80;11.10;;;;;;;2.74;92.52;95748.83;434040;1257;95438;-40
2024/01/18 01:44:42;;;;;;;11.80;8.80;;;;;;;3.03;92.89;95746.14;433979;1264;95813;-38
2024/01/18 01:54:50;;;;;;;12.90;9.10;;;;;;;3.23;92.82;95755.23;433935;1263;106853;-38
2024/01/18 02:04:58;;;;;;;18.30;10.70;;;;;;;3.46;93.21;95751.89;433914;1257;108611;-38
2024/01/18 02:15:08;;;;;;;19.90;13.00;;;;;;;3.54;93.29;95751.09;433904;1263;94953;-41
2024/01/18 02:25:21;;;;;;;13.40;9.90;;;;;;;3.52;93.21;95749.57;433877;1263;95301;-39
2024/01/18 02:35:27;;;;;;;11.80;8.30;;;;;;;3.57;93.28;95746.80;433883;1261;108114;-39
2024/01/18 02:45:37;;;;;;;12.20;9.10;;;;;;;3.60;93.27;95745.80;433919;1263;107861;-39
2024/01/18 02:55:44;;;;;;;11.80;8.50;;;;;;;3.58;93.33;95751.70;433915;1260;95664;-39
2024/01/18 03:05:51;;;;;;;20.90;13.60;;;;;;;3.48;93.39;95759.84;433748;1257;108630;-40
2024/01/18 03:26:07;;;;;;;13.60;9.90;;;;;;;3.31;93.74;95764.10;434090;1260;96169;-39
2024/01/18 03:36:14;;;;;;;12.50;9.30;;;;;;;3.32;93.89;95777.33;434015;1259;110026;-40
2024/01/18 03:46:21;;;;;;;16.10;10.90;;;;;;;3.37;94.09;95783.63;433953;1260;109528;-39
2024/01/18 03:56:27;;;;;;;15.00;10.30;;;;;;;3.42;94.18;95792.06;433924;1257;95422;-40
2024/01/18 04:06:33;;;;;;;12.10;9.30;;;;;;;3.45;94.28;95809.05;433970;1260;109805;-39
2024/01/18 04:16:40;;;;;;;18.20;11.50;;;;;;;3.45;94.60;95812.13;433958;1257;108917;-38
2024/01/18 04:26:49;;;;;;;20.50;15.40;;;;;;;3.39;94.70;95815.45;433995;1260;95656;-41
2024/01/18 04:36:57;;;;;;;17.80;12.50;;;;;;;3.39;94.61;95823.59;433919;1260;107717;-39
2024/01/18 04:47:04;;;;;;;22.20;16.30;;;;;;;3.36;94.56;95838.11;433956;1258;108428;-38
2024/01/18 04:57:11;;;;;;;16.50;11.70;;;;;;;3.42;94.89;95849.11;434361;1257;97169;-40
2024/01/18 05:07:18;;;;;;;18.00;12.50;;;;;;;3.47;95.00;95855.14;433907;1261;108618;-38
2024/01/18 05:27:33;;;;;;;29.50;20.00;;;;;;;3.47;95.57;95880.63;433949;1260;96220;-39
2024/01/18 05:47:46;;;;;;;15.80;12.40;;;;;;;3.37;95.12;95903.77;434212;1259;108415;-39
2024/01/18 05:57:54;;;;;;;15.30;10.80;;;;;;;3.37;95.21;95924.30;434068;1256;95412;-40
2024/01/18 06:07:59;;;;;;;23.60;15.20;;;;;;;3.37;95.08;95940.80;433889;1260;107974;-38
2024/01/18 06:18:05;;;;;;;26.60;14.10;;;;;;;3.31;95.41;95950.68;434351;1257;96132;-39
2024/01/18 06:28:13;;;;;;;34.00;20.40;;;;;;;3.17;95.37;95966.64;434191;1257;95668;-39
2024/01/18 06:48:27;;;;;;;28.00;18.20;;;;;;;2.56;94.95;95992.94;434013;1260;108104;-38
2024/01/18 06:58:32;;;;;;;25.60;17.10;;;;;;;2.32;95.16;95998.48;434105;1257;95310;-40
2024/01/18 07:08:39;;;;;;;36.70;23.80;;;;;;;2.22;95.31;96000.54;433931;1257;108478;-38
2024/01/18 07:18:46;;;;;;;33.60;20.80;;;;;;;2.15;95.23;96022.88;435126;1256;107774;-39
2024/01/18 07:28:54;;;;;;;46.30;24.50;;;;;;;2.07;95.35;96034.23;434071;1258;95279;-38
2024/01/18 07:38:59;;;;;;;74.30;33.60;;;;;;;1.93;95.51;96047.98;434051;1257;96098;-38
2024/01/18 07:49:05;;;;;;;35.70;22.20;;;;;;;1.87;95.31;96057.09;434345;1258;95688;-38
2024/01/18 07:59:13;;;;;;;41.00;24.80;;;;;;;1.83;95.47;96068.63;434369;1257;107564;-39
2024/01/18 08:09:20;;;;;;;35.80;21.90;;;;;;;1.83;95.44;96077.48;434382;1253;96104;-39
2024/01/18 08:19:27;;;;;;;29.00;19.10;;;;;;;1.85;95.55;96080.98;434422;1258;107778;-39
2024/01/18 08:29:34;;;;;;;41.60;27.90;;;;;;;1.82;95.60;96095.60;434466;1255;95765;-38
2024/01/18 08:39:42;;;;;;;47.50;29.40;;;;;;;1.72;95.69;96120.17;434414;1257;96188;-38
2024/01/18 08:59:56;;;;;;;29.60;21.30;;;;;;;1.56;95.83;96149.17;434707;1254;107263;-38
2024/01/18 09:20:10;;;;;;;31.50;19.20;;;;;;;1.40;96.48;96188.88;435945;1256;108995;-40
2024/01/18 09:30:14;;;;;;;29.30;19.60;;;;;;;1.51;96.37;96211.85;435084;1256;107481;-38
2024/01/18 09:40:19;;;;;;;42.40;23.10;;;;;;;1.46;96.31;96216.23;435470;1256;95302;-39
2024/01/18 10:00:34;;;;;;;34.60;20.90;;;;;;;1.17;96.28;96254.70;435917;1256;108865;-38
2024/01/18 10:10:42;;;;;;;30.40;19.70;;;;;;;1.06;96.39;96256.01;435067;1256;107798;-39
2024/01/18 10:20:47;;;;;;;37.80;22.80;;;;;;;1.00;96.62;96255.36;435111;1256;96143;-39
2024/01/18 10:41:00;;;;;;;57.40;32.60;;;;;;;1.00;96.70;96255.83;435058;1256;107499;-38
2024/01/18 10:51:06;;;;;;;69.50;36.60;;;;;;;0.93;96.73;96251.65;435020;1256;97278;-39
2024/01/18 11:01:12;;;;;;;43.80;26.80;;;;;;;0.92;96.42;96273.02;434945;1256;96521;-39
2024/01/18 11:11:21;;;;;;;49.60;30.40;;;;;;;0.93;96.43;96277.80;435035;1256;109240;-39
2024/01/18 11:21:38;;;;;;;54.50;31.30;;;;;;;1.11;96.69;96264.13;434979;1256;108519;-39
2024/01/18 11:41:54;;;;;;;104.70;49.80;;;;;;;0.95;96.54;96279.18;435087;1256;95307;-39
2024/01/18 11:52:01;;;;;;;66.80;38.70;;;;;;;0.87;96.52;96290.03;435054;1256;108569;-39
2024/01/18 12:02:08;;;;;;;59.70;32.90;;;;;;;0.85;96.34;96284.13;435108;1256;108923;-39
2024/01/18 12:12:16;;;;;;;52.10;32.50;;;;;;;0.87;96.53;96268.96;435165;1258;95697;-39
2024/01/18 12:22:22;;;;;;;54.10;32.80;;;;;;;0.85;96.50;96267.88;435143;1256;108848;-39
2024/01/18 12:32:27;;;;;;;79.00;39.60;;;;;;;0.84;96.49;96272.85;435014;1257;107961;-39
2024/01/18 12:42:34;;;;;;;113.80;52.50;;;;;;;0.72;96.55;96278.62;435206;1259;108677;-40
2024/01/18 13:02:48;;;;;;;71.30;40.80;;;;;;;0.71;96.39;96278.11;435423;1257;108777;-38
2024/01/18 13:12:55;;;;;;;71.90;39.50;;;;;;;0.84;96.46;96286.84;435116;1253;107033;-38
2024/01/18 13:23:03;;;;;;;82.20;43.40;;;;;;;0.75;96.45;96309.84;435454;1256;95925;-39
2024/01/18 13:33:10;;;;;;;93.80;44.70;;;;;;;0.55;96.42;96333.09;435113;1256;96107;-39
2024/01/18 13:43:18;;;;;;;75.70;39.60;;;;;;;0.45;96.31;96323.70;434950;1256;107657;-40
2024/01/18 13:53:25;;;;;;;71.70;41.30;;;;;;;0.48;96.43;96307.84;434990;1256;108730;-38
2024/01/18 14:03:32;;;;;;;92.70;43.50;;;;;;;0.53;96.38;96317.06;434919;1256;95288;-40
2024/01/18 14:13:37;;;;;;;81.50;41.50;;;;;;;0.44;96.41;96342.36;435105;1253;108070;-39
2024/01/18 14:23:45;;;;;;;125.90;55.60;;;;;;;0.33;96.51;96356.00;435155;1256;107449;-40
2024/01/18 14:33:52;;;;;;;98.30;45.50;;;;;;;0.18;96.77;96361.79;435165;1256;95650;-40
2024/01/18 14:43:58;;;;;;;82.30;40.10;;;;;;;0.10;96.59;96361.89;435000;1254;95537;-39
2024/01/18 14:54:05;;;;;;;66.60;35.70;;;;;;;0.11;96.70;96369.40;434980;1256;107973;-39
2024/01/18 15:04:10;;;;;;;71.20;36.20;;;;;;;0.12;96.75;96381.54;434949;1253;106093;-39
2024/01/18 15:14:18;;;;;;;66.50;34.50;;;;;;;0.16;96.68;96401.02;434974;1256;95329;-40
2024/01/18 15:24:23;;;;;;;122.10;55.70;;;;;;;0.14;96.91;96416.67;435048;1257;109431;-40
2024/01/18 15:44:41;;;;;;;58.50;32.40;;;;;;;0.01;96.84;96448.22;435024;1254;107641;-39
2024/01/18 15:54:48;;;;;;;62.90;34.20;;;;;;;-0.14;96.76;96459.48;435122;1254;95651;-39
2024/01/18 16:04:54;;;;;;;71.90;35.70;;;;;;;-0.22;96.86;96491.68;435099;1258;108178;-38
2024/01/18 16:15:04;;;;;;;68.00;37.20;;;;;;;-0.36;96.88;96511.25;435179;1254;108176;-39
2024/01/18 16:25:12;;;;;;;72.30;38.30;;;;;;;-0.50;97.08;96541.58;435055;1256;95417;-38
2024/01/18 16:35:19;;;;;;;99.20;46.50;;;;;;;-0.58;97.00;96555.50;435224;1257;110050;-39
2024/01/18 16:45:26;;;;;;;111.80;49.70;;;;;;;-0.79;97.18;96576.34;435152;1259;108500;-39
2024/01/18 16:55:35;;;;;;;87.20;44.70;;;;;;;-0.83;97.16;96604.55;435064;1254;108507;-40
2024/01/18 17:05:42;;;;;;;88.90;43.20;;;;;;;-0.91;97.66;96632.73;435154;1259;96540;-39
2024/01/18 17:25:56;;;;;;;65.10;29.90;;;;;;;-1.13;97.81;96650.33;435091;1257;107052;-39
2024/01/18 17:36:03;;;;;;;47.70;28.30;;;;;;;-1.32;97.96;96676.34;435082;1254;97491;-39
2024/01/18 17:46:08;;;;;;;66.60;30.40;;;;;;;-1.44;98.05;96688.36;435037;1257;110721;-40
2024/01/18 17:56:16;;;;;;;48.40;24.70;;;;;;;-1.58;97.98;96715.48;434963;1256;108841;-40
2024/01/18 18:06:20;;;;;;;44.00;24.10;;;;;;;-1.61;97.86;96739.73;434995;1256;97874;-39
2024/01/18 18:26:32;;;;;;;67.20;31.70;;;;;;;-1.52;97.73;96771.02;434855;1257;97868;-39
2024/01/18 18:36:38;;;;;;;110.00;43.10;;;;;;;-1.54;97.70;96790.67;435102;1257;110683;-38
2024/01/18 18:56:50;;;;;;;61.70;32.90;;;;;;;-1.63;97.44;96837.29;434994;1253;97491;-38
2024/01/18 19:06:57;;;;;;;68.50;33.30;;;;;;;-1.60;97.70;96867.23;434956;1257;110722;-37
2024/01/18 19:27:11;;;;;;;96.90;47.90;;;;;;;-1.49;97.56;96909.95;435031;1258;97899;-39
2024/01/18 19:37:17;;;;;;;113.00;53.20;;;;;;;-1.55;97.75;96917.64;435029;1257;107839;-39
2024/01/18 19:57:31;;;;;;;79.70;42.60;;;;;;;-1.63;97.94;96986.36;435152;1256;108273;-38
2024/01/18 20:27:49;;;;;;;91.70;42.50;;;;;;;-1.66;98.13;97053.59;435075;1258;108350;-39
2024/01/18 20:37:55;;;;;;;69.20;32.10;;;;;;;-1.77;98.13;97080.84;435134;1265;97902;-38
2024/01/18 20:48:03;;;;;;;46.90;23.50;;;;;;;-1.76;98.09;97113.32;435137;1257;97957;-39
2024/01/18 20:58:11;;;;;;;50.60;23.00;;;;;;;-1.77;97.98;97139.23;435195;1257;107782;-38
2024/01/18 21:08:18;;;;;;;40.30;22.00;;;;;;;-1.73;98.11;97160.59;435200;1267;97915;-41
2024/01/18 21:28:31;;;;;;;64.70;30.30;;;;;;;-1.69;98.16;97216.83;435070;1257;106666;-38
2024/01/18 21:38:39;;;;;;;44.20;25.70;;;;;;;-1.71;98.05;97240.49;435118;1256;97853;-40
2024/01/18 21:48:46;;;;;;;49.70;27.00;;;;;;;-1.67;97.84;97264.64;435269;1253;109689;-38
2024/01/18 21:58:51;;;;;;;51.20;26.60;;;;;;;-1.63;98.03;97283.09;435005;1256;108297;-38
2024/01/18 22:08:58;;;;;;;89.20;37.30;;;;;;;-1.67;98.25;97291.30;435118;1256;96638;-38
2024/01/18 22:19:06;;;;;;;78.10;37.00;;;;;;;-1.72;98.17;97316.11;435174;1256;110449;-39
2024/01/18 22:29:32;;;;;;;69.00;34.50;;;;;;;-1.70;97.99;97345.08;435054;1254;107269;-38
2024/01/18 22:39:40;;;;;;;54.30;27.60;;;;;;;-1.67;97.89;97365.55;435233;1253;97877;-40
2024/01/18 22:49:47;;;;;;;55.00;28.30;;;;;;;-1.69;97.88;97379.85;435168;1257;110638;-38
2024/01/18 22:59:54;;;;;;;76.80;35.10;;;;;;;-1.72;98.01;97398.15;435297;1257;108185;-39
2024/01/18 23:10:01;;;;;;;79.20;34.10;;;;;;;-1.78;98.01;97414.21;435138;1258;96629;-37
2024/01/18 23:20:08;;;;;;;55.20;30.20;;;;;;;-1.80;97.82;97425.54;435059;1257;110086;-38
2024/01/18 23:30:15;;;;;;;56.70;30.50;;;;;;;-1.77;97.56;97429.65;435144;1254;106852;-38
2024/01/18 23:40:22;;;;;;;58.70;30.80;;;;;;;-1.77;97.60;97456.30;435045;1256;97864;-39
2024/01/18 23:50:29;;;;;;;88.20;38.70;;;;;;;-1.82;97.77;97478.65;435104;1257;110492;-40
